Carter, South Dakota
Current Conditions -  °F | °C
As of 4:53 AM on Friday 24 Oct 2014 (Local Time) from KICR Reporting Station
Clear Clear  
Wind Chill: 52°   Ceiling: Unl
Heat Index: 52°   Visibility: 10mi
Dew Point: 34°   Wind: 3mph
Humidity: 50%   Direction: 220°SW
Pressure: 29.88"   Gusts: NA
Location:  43.39°N, 100.2°W
Report Text: KICR 240953Z AUTO 22003KT 10SM CLR 11/01 A2988 RMK AO2 SLP112 T01110011 $
Loading
Personal Weather Stations






























Interactive Weather Map
Tropical Storm Tracking
New forecast layout! Learn more

10-Day Weather Forecast

Advertisements
Track Severe Weather on mobile